Time;durP1;ratioP1;P1;durP2;ratioP2;P2;SDS_P1;SDS_P2;PMS_P1;PMS_P2;Temp;Humidity;BMP_temperature;BMP_pressure;BME280_temperature;BME280_humidity;BME280_pressure;Samples;Min_cycle;Max_cycle;Signal;HPM_P1;HPM_P2
2021/09/02 00:02:23;;;;;;;24.17;14.20;;;;;;;;;;4971087;28;20487;-70
2021/09/02 00:04:48;;;;;;;27.90;14.10;;;;;;;;;;4971136;28;20117;-71
2021/09/02 00:07:14;;;;;;;31.55;13.93;;;;;;;;;;4971126;28;20083;-72
2021/09/02 00:09:40;;;;;;;28.48;16.17;;;;;;;;;;4971370;28;20474;-71
2021/09/02 00:12:05;;;;;;;23.17;13.18;;;;;;;;;;4971554;28;20109;-72
2021/09/02 00:14:31;;;;;;;33.35;14.18;;;;;;;;;;4969840;28;20030;-72
2021/09/02 00:16:56;;;;;;;27.35;14.63;;;;;;;;;;4953952;28;20026;-70
2021/09/02 00:19:22;;;;;;;26.60;15.30;;;;;;;;;;4971135;28;20030;-71
2021/09/02 00:21:47;;;;;;;36.53;15.82;;;;;;;;;;4971012;28;20022;-71
2021/09/02 00:24:13;;;;;;;33.85;17.38;;;;;;;;;;4970879;28;20026;-71
2021/09/02 00:26:42;;;;;;;36.25;18.80;;;;;;;;;;4971144;28;20026;-71
2021/09/02 00:29:07;;;;;;;37.85;20.63;;;;;;;;;;4970920;28;20046;-71
2021/09/02 00:31:33;;;;;;;38.72;20.83;;;;;;;;;;4970929;28;20031;-70
2021/09/02 00:33:58;;;;;;;36.13;20.33;;;;;;;;;;4953544;28;20031;-72
2021/09/02 00:36:24;;;;;;;40.65;21.30;;;;;;;;;;4970439;28;20373;-72
2021/09/02 00:38:49;;;;;;;36.85;20.33;;;;;;;;;;4971062;28;20026;-72
2021/09/02 00:41:15;;;;;;;37.17;20.90;;;;;;;;;;4970711;28;20035;-72
2021/09/02 00:43:41;;;;;;;35.58;20.55;;;;;;;;;;4971175;28;20030;-73
2021/09/02 00:46:10;;;;;;;37.83;19.67;;;;;;;;;;4971019;28;20031;-73
2021/09/02 00:48:35;;;;;;;38.15;20.25;;;;;;;;;;4969612;28;20030;-73
2021/09/02 00:51:01;;;;;;;36.30;19.35;;;;;;;;;;4970859;28;20034;-72
2021/09/02 00:53:29;;;;;;;38.83;20.60;;;;;;;;;;4953006;28;20030;-72
2021/09/02 00:55:55;;;;;;;34.72;19.20;;;;;;;;;;4970757;28;20551;-75
2021/09/02 00:58:21;;;;;;;39.03;20.35;;;;;;;;;;4970715;28;20111;-72
2021/09/02 01:00:48;;;;;;;37.80;20.10;;;;;;;;;;4953934;28;20118;-73
2021/09/02 01:03:17;;;;;;;35.72;20.63;;;;;;;;;;4953302;28;20023;-72
2021/09/02 01:05:42;;;;;;;33.92;20.45;;;;;;;;;;4970863;28;20109;-72
2021/09/02 01:08:08;;;;;;;37.22;20.83;;;;;;;;;;4953130;28;20184;-71
2021/09/02 01:10:34;;;;;;;36.17;20.02;;;;;;;;;;4970385;28;20027;-71
2021/09/02 01:13:00;;;;;;;35.60;19.02;;;;;;;;;;4970411;28;20033;-72
2021/09/02 01:15:27;;;;;;;33.65;18.13;;;;;;;;;;4953154;28;20125;-71
2021/09/02 01:17:59;;;;;;;36.55;19.05;;;;;;;;;;4970412;28;20038;-72
2021/09/02 01:20:28;;;;;;;35.65;20.20;;;;;;;;;;4970363;28;20039;-72
2021/09/02 01:22:57;;;;;;;40.67;18.95;;;;;;;;;;4970701;28;20522;-71
2021/09/02 01:25:31;;;;;;;38.95;20.17;;;;;;;;;;4970688;28;20085;-72
2021/09/02 01:28:00;;;;;;;30.17;18.50;;;;;;;;;;4970310;28;20061;-71
2021/09/02 01:30:26;;;;;;;34.00;19.70;;;;;;;;;;4970261;28;20034;-72
2021/09/02 01:32:53;;;;;;;32.88;18.17;;;;;;;;;;4970296;28;20081;-71
2021/09/02 01:35:20;;;;;;;34.70;19.27;;;;;;;;;;4970197;28;20027;-74
2021/09/02 01:37:51;;;;;;;31.17;17.35;;;;;;;;;;4970157;28;20034;-75
2021/09/02 01:40:20;;;;;;;37.08;20.02;;;;;;;;;;4952745;28;20034;-74
2021/09/02 01:42:46;;;;;;;34.75;19.50;;;;;;;;;;4970101;28;20035;-74
2021/09/02 01:45:14;;;;;;;33.40;19.10;;;;;;;;;;4970339;28;20030;-74
2021/09/02 01:47:39;;;;;;;40.42;20.05;;;;;;;;;;4970626;28;20033;-72
2021/09/02 01:50:16;;;;;;;37.30;19.05;;;;;;;;;;4973437;28;20034;-71
2021/09/02 01:52:43;;;;;;;35.00;19.15;;;;;;;;;;4955994;28;20454;-72
2021/09/02 01:55:10;;;;;;;31.25;18.10;;;;;;;;;;4973789;28;20031;-72
2021/09/02 01:57:36;;;;;;;47.17;18.93;;;;;;;;;;4973585;28;20030;-74
2021/09/02 02:00:06;;;;;;;32.85;19.42;;;;;;;;;;4956397;28;20050;-75
2021/09/02 02:02:32;;;;;;;35.75;18.50;;;;;;;;;;4973360;28;20514;-75
2021/09/02 02:04:57;;;;;;;34.75;17.98;;;;;;;;;;4973731;28;20035;-75
2021/09/02 02:07:23;;;;;;;32.23;18.13;;;;;;;;;;4973650;28;20030;-74
2021/09/02 02:09:49;;;;;;;36.33;18.58;;;;;;;;;;4956604;28;20474;-75
2021/09/02 02:12:14;;;;;;;35.77;19.03;;;;;;;;;;4973708;28;20034;-74
2021/09/02 02:14:40;;;;;;;37.13;19.20;;;;;;;;;;4972793;28;20033;-74
2021/09/02 02:17:05;;;;;;;37.30;18.50;;;;;;;;;;4973376;28;20553;-74
2021/09/02 02:19:31;;;;;;;36.25;19.00;;;;;;;;;;4955467;28;20078;-74
2021/09/02 02:21:57;;;;;;;30.33;17.77;;;;;;;;;;4955760;28;20054;-73
2021/09/02 02:24:22;;;;;;;28.90;17.13;;;;;;;;;;4955291;28;20493;-75
2021/09/02 02:26:48;;;;;;;27.70;17.17;;;;;;;;;;4973102;28;20027;-74
2021/09/02 02:29:14;;;;;;;37.40;19.33;;;;;;;;;;4973042;28;20065;-75
2021/09/02 02:31:39;;;;;;;35.63;19.02;;;;;;;;;;4972599;28;20476;-75
2021/09/02 02:34:05;;;;;;;33.07;17.70;;;;;;;;;;4973160;28;20101;-76
2021/09/02 02:36:30;;;;;;;32.63;18.63;;;;;;;;;;4955564;28;20045;-74
2021/09/02 02:38:56;;;;;;;31.40;18.03;;;;;;;;;;4955304;28;20119;-75
2021/09/02 02:41:22;;;;;;;36.43;17.70;;;;;;;;;;4955069;28;20030;-75
2021/09/02 02:43:48;;;;;;;30.50;16.60;;;;;;;;;;4972642;28;20022;-74
2021/09/02 02:46:13;;;;;;;41.10;16.37;;;;;;;;;;4955111;28;20037;-74
2021/09/02 02:48:39;;;;;;;33.20;16.83;;;;;;;;;;4972630;28;20019;-73
2021/09/02 02:51:06;;;;;;;30.27;16.30;;;;;;;;;;4972540;28;20026;-73
2021/09/02 02:53:32;;;;;;;34.17;18.10;;;;;;;;;;4972039;28;20031;-72
2021/09/02 02:55:57;;;;;;;35.13;17.60;;;;;;;;;;4955032;28;20483;-73
2021/09/02 02:58:23;;;;;;;34.70;16.73;;;;;;;;;;4972133;28;20026;-73
2021/09/02 03:00:48;;;;;;;30.10;15.63;;;;;;;;;;4972049;28;20026;-73
2021/09/02 03:03:14;;;;;;;32.07;16.63;;;;;;;;;;4972632;28;20015;-74
2021/09/02 03:05:39;;;;;;;34.23;17.43;;;;;;;;;;4972174;28;20566;-73
2021/09/02 03:08:05;;;;;;;30.80;15.40;;;;;;;;;;4972117;28;20102;-74
2021/09/02 03:10:31;;;;;;;34.70;17.43;;;;;;;;;;4954494;28;20027;-74
2021/09/02 03:12:56;;;;;;;34.30;17.37;;;;;;;;;;4972643;28;20077;-75
2021/09/02 03:15:22;;;;;;;34.33;16.40;;;;;;;;;;4972602;28;20467;-75
2021/09/02 03:17:47;;;;;;;33.33;16.63;;;;;;;;;;4972095;28;20491;-75
2021/09/02 03:20:13;;;;;;;29.30;15.77;;;;;;;;;;4972083;28;20027;-75
2021/09/02 03:22:39;;;;;;;28.23;16.47;;;;;;;;;;4971774;28;20023;-74
2021/09/02 03:25:05;;;;;;;34.47;17.27;;;;;;;;;;4971835;28;20522;-74
2021/09/02 03:27:31;;;;;;;28.87;16.23;;;;;;;;;;4954032;28;20054;-74
2021/09/02 03:29:56;;;;;;;32.23;15.23;;;;;;;;;;4972146;28;20029;-74
2021/09/02 03:32:22;;;;;;;40.27;18.57;;;;;;;;;;4972059;28;20546;-72
2021/09/02 03:34:47;;;;;;;34.00;18.37;;;;;;;;;;4973071;28;20023;-72
2021/09/02 03:37:13;;;;;;;30.83;17.57;;;;;;;;;;4955252;28;20026;-72
2021/09/02 03:39:38;;;;;;;33.73;18.17;;;;;;;;;;4971634;28;20054;-73
2021/09/02 03:42:04;;;;;;;31.13;18.07;;;;;;;;;;4972001;28;20031;-73
2021/09/02 03:44:29;;;;;;;35.70;18.47;;;;;;;;;;4971443;28;20019;-73
2021/09/02 03:46:55;;;;;;;38.43;18.93;;;;;;;;;;4971795;28;20130;-73
2021/09/02 03:49:20;;;;;;;32.03;18.23;;;;;;;;;;4971338;28;20089;-72
2021/09/02 03:51:47;;;;;;;32.83;17.30;;;;;;;;;;4972126;28;20038;-75
2021/09/02 03:54:12;;;;;;;36.23;17.50;;;;;;;;;;4954142;28;20034;-74
2021/09/02 03:56:38;;;;;;;32.93;17.07;;;;;;;;;;4971864;28;20053;-74
2021/09/02 03:59:04;;;;;;;29.60;17.00;;;;;;;;;;4971355;28;20041;-73
2021/09/02 04:01:29;;;;;;;32.67;15.40;;;;;;;;;;4971396;28;20093;-74
2021/09/02 04:03:55;;;;;;;28.13;16.33;;;;;;;;;;4953923;28;20379;-73
2021/09/02 04:06:21;;;;;;;31.07;16.57;;;;;;;;;;4971139;28;20034;-72
2021/09/02 04:08:46;;;;;;;26.87;14.53;;;;;;;;;;4971253;28;20506;-73
2021/09/02 04:11:13;;;;;;;27.90;14.70;;;;;;;;;;4971057;28;20065;-72
2021/09/02 04:13:38;;;;;;;29.07;16.10;;;;;;;;;;4971726;28;20030;-74
2021/09/02 04:16:04;;;;;;;29.97;17.07;;;;;;;;;;4971549;28;20031;-75
2021/09/02 04:18:29;;;;;;;30.90;15.30;;;;;;;;;;4971507;28;20346;-74
2021/09/02 04:20:55;;;;;;;25.67;15.27;;;;;;;;;;4969862;28;20117;-74
2021/09/02 04:23:21;;;;;;;31.03;15.60;;;;;;;;;;4953569;28;20027;-74
2021/09/02 04:25:46;;;;;;;25.07;14.80;;;;;;;;;;4970789;28;20025;-74
2021/09/02 04:28:12;;;;;;;30.13;14.57;;;;;;;;;;4970642;28;20058;-72
2021/09/02 04:30:37;;;;;;;32.23;16.90;;;;;;;;;;4953661;28;20046;-73
2021/09/02 04:33:03;;;;;;;26.73;15.00;;;;;;;;;;4953466;28;20547;-74
2021/09/02 04:35:29;;;;;;;26.87;14.70;;;;;;;;;;4953220;28;20034;-73
2021/09/02 04:37:55;;;;;;;30.77;15.87;;;;;;;;;;4971028;28;20034;-74
2021/09/02 04:40:20;;;;;;;28.00;14.77;;;;;;;;;;4970910;28;20391;-73
2021/09/02 04:42:46;;;;;;;33.00;16.20;;;;;;;;;;4970817;28;20054;-76
2021/09/02 04:45:12;;;;;;;26.80;15.43;;;;;;;;;;4953666;28;20034;-73
2021/09/02 04:47:37;;;;;;;29.50;16.00;;;;;;;;;;4956066;28;20427;-74
2021/09/02 04:50:05;;;;;;;30.50;14.13;;;;;;;;;;4972717;28;20033;-74
2021/09/02 04:52:31;;;;;;;25.90;15.77;;;;;;;;;;4971900;28;20033;-74
2021/09/02 04:54:56;;;;;;;31.03;14.67;;;;;;;;;;4971036;28;20027;-73
2021/09/02 04:57:22;;;;;;;37.20;17.67;;;;;;;;;;4962799;28;20356;-73
2021/09/02 04:59:47;;;;;;;25.10;15.27;;;;;;;;;;4953792;28;20034;-74
2021/09/02 05:02:14;;;;;;;27.60;15.20;;;;;;;;;;4968477;28;20533;-74
2021/09/02 05:04:39;;;;;;;26.03;14.83;;;;;;;;;;4968697;28;20027;-75
2021/09/02 05:07:05;;;;;;;32.33;16.27;;;;;;;;;;4970606;28;20113;-73
2021/09/02 05:09:31;;;;;;;27.00;15.37;;;;;;;;;;4947237;28;20489;-74
2021/09/02 05:11:56;;;;;;;29.80;13.47;;;;;;;;;;4981849;28;20730;-73
2021/09/02 05:14:22;;;;;;;26.37;14.10;;;;;;;;;;4969226;28;20042;-74
2021/09/02 05:16:47;;;;;;;26.17;14.13;;;;;;;;;;4965935;28;20033;-74
2021/09/02 05:19:13;;;;;;;30.37;14.47;;;;;;;;;;4979974;28;20464;-73
2021/09/02 05:21:38;;;;;;;33.97;15.47;;;;;;;;;;4956417;28;20031;-75
2021/09/02 05:24:04;;;;;;;25.73;13.37;;;;;;;;;;4955099;28;20228;-74
2021/09/02 05:26:30;;;;;;;27.63;14.67;;;;;;;;;;4973536;28;20042;-74
2021/09/02 05:28:55;;;;;;;22.80;14.43;;;;;;;;;;4957228;28;20057;-74
2021/09/02 05:31:21;;;;;;;29.83;14.77;;;;;;;;;;4975649;28;20455;-75
2021/09/02 05:33:47;;;;;;;30.70;14.77;;;;;;;;;;4957059;28;20036;-73
2021/09/02 05:36:12;;;;;;;25.37;13.93;;;;;;;;;;4975308;28;20030;-73
2021/09/02 05:38:38;;;;;;;25.47;13.77;;;;;;;;;;4975686;28;20112;-74
2021/09/02 05:41:03;;;;;;;27.60;13.95;;;;;;;;;;4975911;28;20475;-74
2021/09/02 05:43:29;;;;;;;31.90;14.70;;;;;;;;;;4975276;28;20122;-73
2021/09/02 05:45:54;;;;;;;22.13;13.70;;;;;;;;;;4974230;28;20026;-74
2021/09/02 05:48:20;;;;;;;25.23;13.60;;;;;;;;;;4974723;28;20090;-74
2021/09/02 05:50:46;;;;;;;25.65;14.48;;;;;;;;;;4973027;28;20105;-74
2021/09/02 05:53:12;;;;;;;25.27;13.02;;;;;;;;;;4956387;28;20050;-74
2021/09/02 05:55:38;;;;;;;24.73;13.93;;;;;;;;;;4973536;28;20054;-73
2021/09/02 05:58:04;;;;;;;22.20;13.40;;;;;;;;;;4974066;28;20475;-72
2021/09/02 06:00:29;;;;;;;28.53;14.03;;;;;;;;;;4973077;28;20035;-72
2021/09/02 06:02:55;;;;;;;29.92;13.25;;;;;;;;;;4973669;28;20325;-74
2021/09/02 06:05:20;;;;;;;24.75;13.25;;;;;;;;;;4972916;28;20105;-73
2021/09/02 06:07:46;;;;;;;24.40;13.27;;;;;;;;;;4949868;28;20415;-73
2021/09/02 06:10:12;;;;;;;26.55;13.60;;;;;;;;;;4971649;28;20030;-74
2021/09/02 06:12:38;;;;;;;25.33;13.73;;;;;;;;;;4956158;28;20455;-75
2021/09/02 06:15:08;;;;;;;25.48;13.77;;;;;;;;;;4973541;28;20027;-74
2021/09/02 06:17:36;;;;;;;21.33;12.95;;;;;;;;;;4955638;28;20031;-75
2021/09/02 06:20:03;;;;;;;28.67;15.38;;;;;;;;;;4973104;28;20031;-73
2021/09/02 06:22:28;;;;;;;26.95;13.30;;;;;;;;;;4971829;28;20034;-74
2021/09/02 06:24:54;;;;;;;23.40;13.63;;;;;;;;;;4981257;28;20088;-73
2021/09/02 06:27:19;;;;;;;29.38;13.52;;;;;;;;;;4990911;28;20475;-72
2021/09/02 06:29:45;;;;;;;23.55;12.60;;;;;;;;;;4956437;28;20030;-75
2021/09/02 06:32:11;;;;;;;23.42;13.95;;;;;;;;;;4955981;28;20026;-74
2021/09/02 06:34:37;;;;;;;29.45;14.48;;;;;;;;;;4974859;28;20518;-74
2021/09/02 06:37:02;;;;;;;24.90;13.63;;;;;;;;;;4942016;28;20027;-73
2021/09/02 06:39:28;;;;;;;24.95;14.65;;;;;;;;;;4957564;28;20058;-72
2021/09/02 06:41:53;;;;;;;25.75;14.23;;;;;;;;;;4951873;28;20511;-73
2021/09/02 06:44:19;;;;;;;26.52;14.63;;;;;;;;;;4968154;28;20050;-74
2021/09/02 06:46:44;;;;;;;22.08;13.10;;;;;;;;;;4981177;28;20040;-73
2021/09/02 06:49:10;;;;;;;32.05;14.85;;;;;;;;;;4967665;28;20030;-74
2021/09/02 06:51:37;;;;;;;26.67;14.52;;;;;;;;;;4968627;28;20117;-75
2021/09/02 06:54:03;;;;;;;24.10;13.70;;;;;;;;;;4938632;28;20510;-74
2021/09/02 06:56:29;;;;;;;24.92;14.07;;;;;;;;;;4969977;28;20034;-72
2021/09/02 06:58:55;;;;;;;23.60;12.88;;;;;;;;;;4936815;28;20031;-74
2021/09/02 07:01:20;;;;;;;26.23;14.38;;;;;;;;;;4952974;28;20041;-75
2021/09/02 07:03:46;;;;;;;29.23;13.55;;;;;;;;;;4972582;28;20085;-74
2021/09/02 07:06:12;;;;;;;27.80;14.57;;;;;;;;;;4967696;28;20387;-74
2021/09/02 07:08:38;;;;;;;25.50;14.63;;;;;;;;;;4956477;28;20041;-71
2021/09/02 07:11:04;;;;;;;26.27;12.73;;;;;;;;;;4968496;28;20035;-73
2021/09/02 07:13:30;;;;;;;23.25;12.52;;;;;;;;;;4954824;28;20034;-72
2021/09/02 07:15:56;;;;;;;29.27;12.98;;;;;;;;;;4946430;28;20081;-72
2021/09/02 07:18:22;;;;;;;27.40;14.13;;;;;;;;;;4971409;28;20046;-74
2021/09/02 07:20:47;;;;;;;30.98;14.13;;;;;;;;;;4973279;28;20029;-73
2021/09/02 07:23:13;;;;;;;25.10;13.23;;;;;;;;;;4958198;28;20479;-73
2021/09/02 07:25:38;;;;;;;26.98;14.85;;;;;;;;;;4965911;28;20035;-72
2021/09/02 07:28:04;;;;;;;22.73;13.40;;;;;;;;;;4978996;28;20552;-74
2021/09/02 07:30:29;;;;;;;21.33;11.68;;;;;;;;;;4969255;28;20038;-72
2021/09/02 07:32:55;;;;;;;19.23;12.60;;;;;;;;;;4953306;28;20031;-74
2021/09/02 07:35:21;;;;;;;24.23;12.63;;;;;;;;;;4972257;28;20034;-73
2021/09/02 07:37:46;;;;;;;27.23;12.70;;;;;;;;;;4952005;28;20113;-74
2021/09/02 07:40:12;;;;;;;30.42;14.68;;;;;;;;;;4964684;28;20730;-74
2021/09/02 07:42:38;;;;;;;28.13;14.82;;;;;;;;;;4969086;28;20022;-74
2021/09/02 07:45:04;;;;;;;23.45;13.80;;;;;;;;;;4973473;28;20453;-73
2021/09/02 07:47:31;;;;;;;34.08;15.48;;;;;;;;;;4968618;28;20092;-73
2021/09/02 07:49:57;;;;;;;32.50;15.10;;;;;;;;;;4951989;28;20030;-73
2021/09/02 07:52:23;;;;;;;26.65;13.32;;;;;;;;;;4955103;28;20100;-74
2021/09/02 07:54:48;;;;;;;29.17;12.98;;;;;;;;;;4973194;28;20605;-72
2021/09/02 07:57:14;;;;;;;33.85;14.77;;;;;;;;;;4950495;28;20026;-72
2021/09/02 07:59:40;;;;;;;33.75;15.02;;;;;;;;;;4955346;28;20030;-72
2021/09/02 08:02:06;;;;;;;26.73;14.02;;;;;;;;;;4964670;28;20066;-73
2021/09/02 08:04:32;;;;;;;26.23;12.10;;;;;;;;;;4968788;28;20445;-74
2021/09/02 08:06:58;;;;;;;24.10;13.25;;;;;;;;;;4965931;28;20027;-73
2021/09/02 08:09:24;;;;;;;20.65;11.00;;;;;;;;;;4933537;28;20419;-73
2021/09/02 08:11:49;;;;;;;21.88;10.13;;;;;;;;;;4965307;28;20035;-74
2021/09/02 08:14:15;;;;;;;19.42;11.38;;;;;;;;;;4970877;28;20640;-73
2021/09/02 08:16:40;;;;;;;23.27;12.10;;;;;;;;;;4953613;28;20027;-73
2021/09/02 08:19:06;;;;;;;24.17;11.18;;;;;;;;;;4972774;28;20030;-72
2021/09/02 08:21:32;;;;;;;16.23;9.02;;;;;;;;;;4966362;28;20067;-72
2021/09/02 08:23:58;;;;;;;18.67;9.18;;;;;;;;;;4975397;28;20041;-73
2021/09/02 08:26:26;;;;;;;16.52;9.25;;;;;;;;;;4972511;28;20039;-74
2021/09/02 08:28:51;;;;;;;14.00;8.45;;;;;;;;;;4936182;28;20411;-76
2021/09/02 08:31:17;;;;;;;16.35;9.23;;;;;;;;;;4952051;28;20034;-74
2021/09/02 08:33:44;;;;;;;13.88;8.38;;;;;;;;;;4972896;28;20039;-73
2021/09/02 08:36:09;;;;;;;13.00;8.13;;;;;;;;;;4970838;28;20023;-73
2021/09/02 08:38:40;;;;;;;13.32;8.00;;;;;;;;;;4968350;28;20507;-74
2021/09/02 08:41:06;;;;;;;16.63;7.65;;;;;;;;;;4950321;28;20108;-74
2021/09/02 08:43:32;;;;;;;10.75;6.88;;;;;;;;;;4952604;28;20431;-75
2021/09/02 08:45:57;;;;;;;16.67;6.82;;;;;;;;;;4970153;28;20039;-74
2021/09/02 08:48:24;;;;;;;10.43;5.60;;;;;;;;;;4968697;28;20046;-75
2021/09/02 08:50:50;;;;;;;14.02;7.70;;;;;;;;;;4953827;28;20081;-73
2021/09/02 08:53:16;;;;;;;12.30;5.97;;;;;;;;;;4969997;28;20321;-74
2021/09/02 08:55:42;;;;;;;11.73;5.88;;;;;;;;;;4971184;28;20027;-74
2021/09/02 08:58:08;;;;;;;12.20;5.90;;;;;;;;;;4973456;28;20631;-74
2021/09/02 09:00:33;;;;;;;13.57;6.60;;;;;;;;;;4967499;28;20036;-74
2021/09/02 09:03:08;;;;;;;10.90;6.15;;;;;;;;;;4975985;28;20049;-73
2021/09/02 09:05:35;;;;;;;8.63;5.20;;;;;;;;;;4955162;28;20035;-73
2021/09/02 09:08:03;;;;;;;12.82;6.25;;;;;;;;;;4973143;28;20723;-74
2021/09/02 09:10:30;;;;;;;12.60;6.65;;;;;;;;;;4957480;28;20042;-74
2021/09/02 09:12:58;;;;;;;10.60;5.97;;;;;;;;;;4953273;28;20053;-75
2021/09/02 09:15:27;;;;;;;11.80;5.22;;;;;;;;;;4957373;28;20161;-74
2021/09/02 09:17:56;;;;;;;12.40;5.45;;;;;;;;;;4967874;28;20035;-74
2021/09/02 09:20:23;;;;;;;22.30;6.57;;;;;;;;;;4954120;28;20417;-74
2021/09/02 09:22:56;;;;;;;12.52;5.68;;;;;;;;;;4949781;28;20438;-74
2021/09/02 09:25:22;;;;;;;15.82;6.40;;;;;;;;;;4971397;28;20069;-74
2021/09/02 09:27:50;;;;;;;12.43;5.68;;;;;;;;;;4962787;28;20058;-74
2021/09/02 09:30:19;;;;;;;12.35;6.70;;;;;;;;;;4948021;28;20131;-74
2021/09/02 09:32:48;;;;;;;12.13;5.82;;;;;;;;;;4931852;28;20142;-74
2021/09/02 09:35:20;;;;;;;11.18;6.05;;;;;;;;;;4953915;28;20019;-75
2021/09/02 09:37:47;;;;;;;15.07;6.80;;;;;;;;;;4932164;28;20042;-73
2021/09/02 09:40:22;;;;;;;16.30;7.13;;;;;;;;;;4932930;28;20072;-73
2021/09/02 09:43:08;;;;;;;14.30;6.15;;;;;;;;;;4953295;28;20038;-75
2021/09/02 09:45:54;;;;;;;12.00;6.18;;;;;;;;;;4952766;28;20434;-74
2021/09/02 09:48:20;;;;;;;13.18;5.65;;;;;;;;;;4951935;28;20279;-73
2021/09/02 09:50:47;;;;;;;10.23;4.78;;;;;;;;;;4945716;28;21164;-74
2021/09/02 09:53:27;;;;;;;11.27;6.35;;;;;;;;;;4951007;28;20035;-74
2021/09/02 09:55:53;;;;;;;10.77;5.93;;;;;;;;;;4953271;28;20118;-74
2021/09/02 09:58:23;;;;;;;28.40;9.00;;;;;;;;;;4949219;28;20122;-73
2021/09/02 10:00:52;;;;;;;14.35;5.72;;;;;;;;;;4956114;28;20039;-73
2021/09/02 10:03:19;;;;;;;10.35;4.93;;;;;;;;;;4961384;28;20030;-74
2021/09/02 10:05:47;;;;;;;9.50;5.03;;;;;;;;;;4951114;28;20035;-72
2021/09/02 10:08:14;;;;;;;8.80;5.15;;;;;;;;;;4952140;28;20078;-74
2021/09/02 10:10:40;;;;;;;10.63;5.32;;;;;;;;;;4950495;28;20097;-74
2021/09/02 10:13:06;;;;;;;10.23;6.20;;;;;;;;;;4955481;28;20031;-74
2021/09/02 10:15:32;;;;;;;11.13;7.60;;;;;;;;;;4938382;28;20041;-73
2021/09/02 10:17:57;;;;;;;12.48;6.20;;;;;;;;;;4957677;28;20114;-75
2021/09/02 10:20:26;;;;;;;11.48;5.50;;;;;;;;;;4953113;28;20043;-74
2021/09/02 10:22:57;;;;;;;10.57;5.60;;;;;;;;;;4958438;28;21160;-73
2021/09/02 10:25:32;;;;;;;13.17;5.80;;;;;;;;;;4957564;28;20376;-72
2021/09/02 10:28:02;;;;;;;12.55;5.72;;;;;;;;;;4970086;28;20051;-74
2021/09/02 10:30:28;;;;;;;12.88;5.85;;;;;;;;;;4955913;28;20107;-75
2021/09/02 10:32:56;;;;;;;7.55;4.97;;;;;;;;;;4959358;28;20382;-75
2021/09/02 10:35:21;;;;;;;14.57;7.25;;;;;;;;;;4971435;28;20071;-74
2021/09/02 10:37:47;;;;;;;12.32;6.43;;;;;;;;;;4949504;29;20050;-74
2021/09/02 10:40:18;;;;;;;9.05;5.30;;;;;;;;;;4965530;28;20030;-75
2021/09/02 10:42:44;;;;;;;;;;;;;;;;;;4970585;28;20201;-73
2021/09/02 10:45:28;;;;;;;8.25;4.97;;;;;;;;;;4969789;28;19929;-74
2021/09/02 10:48:06;;;;;;;12.52;6.78;;;;;;;;;;4953902;28;20399;-73
2021/09/02 10:50:37;;;;;;;10.20;5.13;;;;;;;;;;4964642;28;20081;-73
2021/09/02 10:53:11;;;;;;;10.88;5.40;;;;;;;;;;4976546;28;20034;-73
2021/09/02 10:56:00;;;;;;;9.63;5.18;;;;;;;;;;4968872;28;20026;-73
2021/09/02 10:58:39;;;;;;;7.13;5.57;;;;;;;;;;4942300;28;20046;-74
2021/09/02 11:01:23;;;;;;;10.80;5.20;;;;;;;;;;4969302;28;20447;-73
2021/09/02 11:03:50;;;;;;;10.20;5.05;;;;;;;;;;4951804;28;20544;-75
2021/09/02 11:06:17;;;;;;;13.88;6.38;;;;;;;;;;4954371;28;20023;-74
2021/09/02 11:08:43;;;;;;;11.70;5.70;;;;;;;;;;4967803;28;20106;-75
2021/09/02 11:11:22;;;;;;;11.13;5.28;;;;;;;;;;4956680;28;20464;-74
2021/09/02 11:13:50;;;;;;;7.63;4.25;;;;;;;;;;4954975;28;20566;-73
2021/09/02 11:16:21;;;;;;;9.35;5.65;;;;;;;;;;4955581;28;20502;-73
2021/09/02 11:18:49;;;;;;;7.90;4.78;;;;;;;;;;4948671;28;20026;-74
2021/09/02 11:21:20;;;;;;;9.27;4.80;;;;;;;;;;4946258;28;20034;-72
2021/09/02 11:23:48;;;;;;;12.77;5.07;;;;;;;;;;4959927;28;20510;-74
2021/09/02 11:26:32;;;;;;;10.32;4.82;;;;;;;;;;4959866;28;20035;-74
2021/09/02 11:28:58;;;;;;;8.75;4.55;;;;;;;;;;4962618;28;20126;-76
2021/09/02 11:31:23;;;;;;;8.30;4.93;;;;;;;;;;4957796;28;20117;-74
2021/09/02 11:33:52;;;;;;;10.07;4.20;;;;;;;;;;4953503;28;21216;-73
2021/09/02 11:36:19;;;;;;;12.38;5.15;;;;;;;;;;4943218;28;20470;-73
2021/09/02 11:38:47;;;;;;;7.18;4.43;;;;;;;;;;4953755;28;20264;-75
2021/09/02 11:41:22;;;;;;;7.22;4.22;;;;;;;;;;4942257;28;20056;-75
2021/09/02 11:43:52;;;;;;;8.25;4.40;;;;;;;;;;4955277;28;20027;-72
2021/09/02 11:46:20;;;;;;;9.20;4.50;;;;;;;;;;4967478;28;20042;-72
2021/09/02 11:48:46;;;;;;;7.63;3.45;;;;;;;;;;4957809;28;20483;-74
2021/09/02 11:51:25;;;;;;;7.15;4.63;;;;;;;;;;4958143;28;20066;-73
2021/09/02 11:54:10;;;;;;;9.13;7.82;;;;;;;;;;4957254;28;20027;-74
2021/09/02 11:56:37;;;;;;;7.13;3.90;;;;;;;;;;4952574;28;20520;-74
2021/09/02 11:59:05;;;;;;;8.60;3.97;;;;;;;;;;4940096;28;20073;-73
2021/09/02 12:01:31;;;;;;;8.18;4.28;;;;;;;;;;4945992;28;20731;-73
2021/09/02 12:03:57;;;;;;;6.75;4.18;;;;;;;;;;4944916;28;20073;-74
2021/09/02 12:06:30;;;;;;;9.48;4.03;;;;;;;;;;4961702;28;21519;-75
2021/09/02 12:08:58;;;;;;;5.85;4.03;;;;;;;;;;4942073;28;20030;-74
2021/09/02 12:11:24;;;;;;;7.25;3.65;;;;;;;;;;4945278;28;20184;-74
2021/09/02 12:13:54;;;;;;;6.78;3.90;;;;;;;;;;4944334;28;20201;-73
2021/09/02 12:16:22;;;;;;;6.63;3.90;;;;;;;;;;4946302;28;20054;-74
2021/09/02 12:18:56;;;;;;;7.30;4.30;;;;;;;;;;4962794;28;20376;-73
2021/09/02 12:21:28;;;;;;;6.13;3.85;;;;;;;;;;4963816;28;20157;-73
2021/09/02 12:24:12;;;;;;;8.55;3.63;;;;;;;;;;4967661;28;20045;-73
2021/09/02 12:26:54;;;;;;;8.30;4.35;;;;;;;;;;4967860;28;20027;-74
2021/09/02 12:29:22;;;;;;;6.28;3.92;;;;;;;;;;4953406;28;20066;-73
2021/09/02 12:31:49;;;;;;;9.70;4.70;;;;;;;;;;4969745;28;20117;-74
2021/09/02 12:34:23;;;;;;;10.00;3.88;;;;;;;;;;4966035;28;20079;-74
2021/09/02 12:37:06;;;;;;;8.35;3.70;;;;;;;;;;4963369;28;20023;-73
2021/09/02 12:39:34;;;;;;;6.13;3.22;;;;;;;;;;4954407;28;20034;-74
2021/09/02 12:42:09;;;;;;;6.60;3.40;;;;;;;;;;4949245;28;20022;-73
2021/09/02 12:44:39;;;;;;;9.55;3.75;;;;;;;;;;4944156;28;20040;-74
2021/09/02 12:47:19;;;;;;;9.27;4.03;;;;;;;;;;4957875;28;20502;-74
2021/09/02 12:49:50;;;;;;;8.27;4.65;;;;;;;;;;4951915;28;20041;-75
2021/09/02 12:52:19;;;;;;;11.32;3.53;;;;;;;;;;4969108;28;20042;-73
2021/09/02 12:55:04;;;;;;;28.65;8.02;;;;;;;;;;4963950;28;20073;-74
2021/09/02 12:57:32;;;;;;;17.95;6.07;;;;;;;;;;4971484;28;20042;-74
2021/09/02 12:59:58;;;;;;;6.35;3.58;;;;;;;;;;4971874;28;20457;-74
2021/09/02 13:02:24;;;;;;;15.55;5.40;;;;;;;;;;4967020;28;20038;-73
2021/09/02 13:04:50;;;;;;;9.30;4.22;;;;;;;;;;4966842;28;20031;-74
2021/09/02 13:07:15;;;;;;;9.15;3.90;;;;;;;;;;4951904;28;20037;-74
2021/09/02 13:09:41;;;;;;;16.55;7.57;;;;;;;;;;4969562;28;20018;-73
2021/09/02 13:12:07;;;;;;;9.73;4.35;;;;;;;;;;4963803;28;20034;-72
2021/09/02 13:14:32;;;;;;;13.95;4.93;;;;;;;;;;4971054;28;20098;-73
2021/09/02 13:16:58;;;;;;;16.20;6.95;;;;;;;;;;4970187;28;20113;-73
2021/09/02 13:19:23;;;;;;;13.48;5.78;;;;;;;;;;4974709;28;20133;-75
2021/09/02 13:21:49;;;;;;;6.70;4.55;;;;;;;;;;4971652;28;20065;-74
2021/09/02 13:24:14;;;;;;;14.98;5.25;;;;;;;;;;4972948;28;20490;-73
2021/09/02 13:26:40;;;;;;;4.85;3.60;;;;;;;;;;4968876;28;20527;-75
2021/09/02 13:29:05;;;;;;;8.45;3.97;;;;;;;;;;4967438;28;20411;-75
2021/09/02 13:31:31;;;;;;;11.95;5.18;;;;;;;;;;4964563;28;20113;-75
2021/09/02 13:33:58;;;;;;;31.33;10.35;;;;;;;;;;4967640;28;20082;-74
2021/09/02 13:36:23;;;;;;;12.32;4.72;;;;;;;;;;4971394;28;20160;-73
2021/09/02 13:38:49;;;;;;;15.95;7.65;;;;;;;;;;4967293;28;20539;-74
2021/09/02 13:41:17;;;;;;;8.93;4.40;;;;;;;;;;4974011;28;20042;-74
2021/09/02 13:43:43;;;;;;;7.50;4.68;;;;;;;;;;4971338;28;20142;-75
2021/09/02 13:46:09;;;;;;;10.23;4.90;;;;;;;;;;4972664;28;20034;-73
2021/09/02 13:48:35;;;;;;;8.60;4.90;;;;;;;;;;4981706;28;20034;-73
2021/09/02 13:51:01;;;;;;;8.00;3.55;;;;;;;;;;4972981;28;20027;-75
2021/09/02 13:53:26;;;;;;;8.80;4.13;;;;;;;;;;4970118;28;20027;-73
2021/09/02 13:55:52;;;;;;;12.60;4.80;;;;;;;;;;4971449;28;20042;-73
2021/09/02 13:58:18;;;;;;;6.93;3.83;;;;;;;;;;4972055;28;20046;-75
2021/09/02 14:00:44;;;;;;;13.05;4.60;;;;;;;;;;4955053;28;20035;-74
2021/09/02 14:03:11;;;;;;;10.18;4.60;;;;;;;;;;4973804;28;20034;-73
2021/09/02 14:05:37;;;;;;;13.32;5.00;;;;;;;;;;4980036;28;20027;-74
2021/09/02 14:08:04;;;;;;;8.23;4.35;;;;;;;;;;4975652;28;20510;-73
2021/09/02 14:10:29;;;;;;;12.10;4.00;;;;;;;;;;4976161;28;20487;-74
2021/09/02 14:12:55;;;;;;;11.05;5.28;;;;;;;;;;4966631;28;20042;-75
2021/09/02 14:15:21;;;;;;;20.25;6.95;;;;;;;;;;4972828;28;20074;-75
2021/09/02 14:17:46;;;;;;;15.48;5.55;;;;;;;;;;4957653;28;20124;-75
2021/09/02 14:20:12;;;;;;;5.68;3.72;;;;;;;;;;4972016;28;20031;-74
2021/09/02 14:22:39;;;;;;;10.52;4.43;;;;;;;;;;4975700;28;20098;-74
2021/09/02 14:25:05;;;;;;;10.30;5.10;;;;;;;;;;4953949;28;20023;-74